Time;durP1;ratioP1;P1;durP2;ratioP2;P2;SDS_P1;SDS_P2;PMS_P1;PMS_P2;Temp;Humidity;BMP_temperature;BMP_pressure;BME280_temperature;BME280_humidity;BME280_pressure;Samples;Min_cycle;Max_cycle;Signal;HPM_P1;HPM_P2
2022/01/05 00:01:47;;;;;;;10.82;7.03;;;;;;;;;;5025521;28;20397;-30
2022/01/05 00:04:13;;;;;;;10.35;6.60;;;;;;;;;;5025532;28;20025;-33
2022/01/05 00:06:38;;;;;;;10.93;6.40;;;;;;;;;;5025325;28;20029;-34
2022/01/05 00:09:04;;;;;;;8.57;6.53;;;;;;;;;;5025117;28;20053;-32
2022/01/05 00:11:29;;;;;;;8.82;6.57;;;;;;;;;;5024912;28;20492;-31
2022/01/05 00:13:56;;;;;;;8.93;7.07;;;;;;;;;;5025391;28;20071;-33
2022/01/05 00:16:22;;;;;;;8.18;6.03;;;;;;;;;;5025197;28;20037;-33
2022/01/05 00:18:47;;;;;;;8.40;6.22;;;;;;;;;;5024927;28;20037;-31
2022/01/05 00:21:13;;;;;;;8.40;6.43;;;;;;;;;;5024863;28;20033;-33
2022/01/05 00:23:38;;;;;;;8.18;6.20;;;;;;;;;;5025584;28;20030;-34
2022/01/05 00:26:04;;;;;;;8.18;6.07;;;;;;;;;;5025114;28;20029;-34
2022/01/05 00:28:30;;;;;;;8.38;6.22;;;;;;;;;;5024778;28;20037;-35
2022/01/05 00:30:56;;;;;;;8.30;6.20;;;;;;;;;;5025173;28;20029;-33
2022/01/05 00:33:21;;;;;;;8.07;6.40;;;;;;;;;;5025025;28;20037;-32
2022/01/05 00:35:47;;;;;;;8.75;6.05;;;;;;;;;;5024674;28;20042;-29
2022/01/05 00:38:12;;;;;;;6.60;5.68;;;;;;;;;;5024959;28;20037;-32
2022/01/05 00:40:38;;;;;;;8.25;6.10;;;;;;;;;;5024531;28;20312;-31
2022/01/05 00:43:03;;;;;;;9.18;6.20;;;;;;;;;;5024746;28;20025;-35
2022/01/05 00:45:29;;;;;;;8.90;6.18;;;;;;;;;;5023936;28;20034;-28
2022/01/05 00:47:54;;;;;;;8.23;6.25;;;;;;;;;;5025036;28;20029;-33
2022/01/05 00:50:20;;;;;;;7.43;5.93;;;;;;;;;;5025271;28;20029;-29
2022/01/05 00:52:46;;;;;;;7.63;5.53;;;;;;;;;;5025666;28;20496;-32
2022/01/05 00:55:11;;;;;;;8.15;5.85;;;;;;;;;;5030618;28;20477;-33
2022/01/05 00:57:37;;;;;;;8.23;5.97;;;;;;;;;;5041984;28;20029;-37
2022/01/05 01:00:06;;;;;;;6.88;5.43;;;;;;;;;;5044672;28;20060;-34
2022/01/05 01:02:31;;;;;;;8.20;5.75;;;;;;;;;;5044506;28;20029;-33
2022/01/05 01:04:57;;;;;;;9.95;5.70;;;;;;;;;;5044469;28;20563;-32
2022/01/05 01:07:22;;;;;;;10.68;5.07;;;;;;;;;;5043975;28;20040;-37
2022/01/05 01:09:48;;;;;;;7.75;5.80;;;;;;;;;;5043869;28;20132;-31
2022/01/05 01:12:13;;;;;;;8.55;5.80;;;;;;;;;;5044529;28;20036;-31
2022/01/05 01:14:39;;;;;;;7.30;5.82;;;;;;;;;;5044173;28;20533;-33
2022/01/05 01:17:04;;;;;;;7.15;5.18;;;;;;;;;;5044013;28;20688;-29
2022/01/05 01:19:30;;;;;;;9.55;5.95;;;;;;;;;;5044290;28;20125;-32
2022/01/05 01:21:57;;;;;;;7.65;5.88;;;;;;;;;;5043988;28;20407;-33
2022/01/05 01:24:23;;;;;;;7.75;5.88;;;;;;;;;;5043869;28;20112;-36
2022/01/05 01:26:49;;;;;;;7.40;5.32;;;;;;;;;;5043808;28;20423;-36
2022/01/05 01:29:14;;;;;;;7.60;5.50;;;;;;;;;;5043922;28;20053;-32
2022/01/05 01:31:40;;;;;;;5.57;4.95;;;;;;;;;;5043536;28;20050;-32
2022/01/05 01:34:05;;;;;;;6.82;5.40;;;;;;;;;;5043568;28;20025;-30
2022/01/05 01:36:31;;;;;;;7.47;5.22;;;;;;;;;;5043644;28;20110;-35
2022/01/05 01:38:56;;;;;;;6.63;5.10;;;;;;;;;;5043017;28;20116;-36
2022/01/05 01:41:22;;;;;;;6.50;5.53;;;;;;;;;;5043512;28;20044;-35
2022/01/05 01:43:47;;;;;;;9.52;5.72;;;;;;;;;;5043647;28;20033;-32
2022/01/05 01:46:13;;;;;;;12.27;5.80;;;;;;;;;;5043285;28;20032;-31
2022/01/05 01:48:38;;;;;;;8.23;5.35;;;;;;;;;;5043301;28;20060;-36
2022/01/05 01:51:04;;;;;;;7.20;5.18;;;;;;;;;;5041164;28;20025;-29
2022/01/05 01:53:29;;;;;;;7.13;5.15;;;;;;;;;;5027593;28;20127;-36
2022/01/05 01:55:55;;;;;;;7.07;5.18;;;;;;;;;;5028090;28;20045;-28
2022/01/05 01:58:22;;;;;;;9.00;5.00;;;;;;;;;;5039211;28;20044;-30
2022/01/05 02:00:47;;;;;;;8.05;5.10;;;;;;;;;;5043286;28;20025;-33
2022/01/05 02:03:14;;;;;;;6.78;5.13;;;;;;;;;;5043050;28;20036;-31
2022/01/05 02:05:40;;;;;;;7.18;4.97;;;;;;;;;;5043316;28;20459;-31
2022/01/05 02:08:05;;;;;;;6.75;5.32;;;;;;;;;;5042764;28;20080;-31
2022/01/05 02:10:31;;;;;;;6.70;4.90;;;;;;;;;;5043369;28;20115;-35
2022/01/05 02:12:56;;;;;;;6.45;4.95;;;;;;;;;;5042748;28;20075;-33
2022/01/05 02:15:22;;;;;;;8.18;5.32;;;;;;;;;;5043007;28;20120;-32
2022/01/05 02:20:30;;;;;;;8.10;5.43;;;;;;;;;;5043092;28;20525;-35
2022/01/05 02:22:55;;;;;;;6.50;5.30;;;;;;;;;;5040980;28;20025;-32
2022/01/05 02:25:21;;;;;;;8.63;4.93;;;;;;;;;;5042881;28;20051;-31
2022/01/05 02:27:47;;;;;;;7.57;4.90;;;;;;;;;;5042714;28;20043;-32
2022/01/05 02:30:14;;;;;;;6.20;5.13;;;;;;;;;;5043105;28;20032;-36
2022/01/05 02:32:40;;;;;;;5.70;4.00;;;;;;;;;;5040711;28;20029;-34
2022/01/05 02:35:06;;;;;;;6.53;4.63;;;;;;;;;;5042607;28;20090;-30
2022/01/05 02:37:31;;;;;;;7.15;5.07;;;;;;;;;;5042548;28;20029;-31
2022/01/05 02:39:57;;;;;;;5.55;4.63;;;;;;;;;;5042333;28;20065;-31
2022/01/05 02:42:30;;;;;;;6.25;5.07;;;;;;;;;;5042360;28;20063;-33
2022/01/05 02:44:58;;;;;;;6.35;4.68;;;;;;;;;;5042702;28;20362;-32
2022/01/05 02:47:23;;;;;;;6.75;4.97;;;;;;;;;;5041279;28;20343;-31
2022/01/05 02:49:49;;;;;;;9.05;5.13;;;;;;;;;;5042378;28;20116;-33
2022/01/05 02:52:14;;;;;;;6.30;4.78;;;;;;;;;;5026715;28;20040;-31
2022/01/05 02:54:43;;;;;;;5.07;4.00;;;;;;;;;;5023783;28;20463;-31
2022/01/05 02:57:09;;;;;;;6.13;4.80;;;;;;;;;;5022202;28;20040;-28
2022/01/05 02:59:34;;;;;;;6.65;4.55;;;;;;;;;;5022607;28;20033;-35
2022/01/05 03:01:59;;;;;;;7.65;4.82;;;;;;;;;;5022645;28;20029;-30
2022/01/05 03:04:26;;;;;;;6.00;4.22;;;;;;;;;;5022606;28;20087;-29
2022/01/05 03:06:52;;;;;;;8.93;4.93;;;;;;;;;;5021995;28;20036;-32
2022/01/05 03:09:18;;;;;;;7.38;4.90;;;;;;;;;;5022467;28;20057;-34
2022/01/05 03:11:44;;;;;;;5.13;4.15;;;;;;;;;;5022687;28;20529;-37
2022/01/05 03:14:09;;;;;;;8.25;5.22;;;;;;;;;;5022351;28;20025;-32
2022/01/05 03:16:35;;;;;;;5.43;4.50;;;;;;;;;;5022139;28;20038;-35
2022/01/05 03:19:00;;;;;;;4.90;4.10;;;;;;;;;;5022582;28;20029;-34
2022/01/05 03:21:26;;;;;;;6.57;4.68;;;;;;;;;;5022291;28;20466;-33
2022/01/05 03:23:51;;;;;;;6.82;4.68;;;;;;;;;;5022112;28;20029;-34
2022/01/05 03:26:17;;;;;;;6.53;4.63;;;;;;;;;;5023066;28;20041;-36
2022/01/05 03:28:43;;;;;;;4.82;4.28;;;;;;;;;;5022945;28;20562;-34
2022/01/05 03:31:08;;;;;;;6.15;4.28;;;;;;;;;;5037486;28;20477;-36
2022/01/05 03:33:34;;;;;;;5.63;4.38;;;;;;;;;;5022627;28;20026;-32
2022/01/05 03:35:59;;;;;;;5.80;4.35;;;;;;;;;;5021651;28;20633;-31
2022/01/05 03:38:27;;;;;;;4.85;4.25;;;;;;;;;;5022434;28;20577;-30
2022/01/05 03:40:53;;;;;;;5.88;4.70;;;;;;;;;;5022324;28;20036;-32
2022/01/05 03:43:18;;;;;;;7.68;4.88;;;;;;;;;;5022518;28;20021;-30
2022/01/05 03:45:44;;;;;;;4.95;3.97;;;;;;;;;;5022326;28;20029;-31
2022/01/05 03:48:11;;;;;;;6.00;4.32;;;;;;;;;;5021564;28;20022;-34
2022/01/05 03:50:36;;;;;;;7.10;4.53;;;;;;;;;;5022635;28;20114;-37
2022/01/05 03:53:03;;;;;;;5.28;4.07;;;;;;;;;;5022657;28;20083;-32
2022/01/05 03:55:29;;;;;;;6.95;4.72;;;;;;;;;;5022953;28;20174;-37
2022/01/05 03:57:55;;;;;;;8.15;4.93;;;;;;;;;;5022397;28;20067;-34
2022/01/05 04:00:20;;;;;;;5.95;4.30;;;;;;;;;;5021958;28;20025;-33
2022/01/05 04:02:46;;;;;;;7.88;4.25;;;;;;;;;;5041300;28;20091;-31
2022/01/05 04:05:11;;;;;;;5.22;4.35;;;;;;;;;;5045728;28;20036;-31
2022/01/05 04:07:37;;;;;;;7.88;4.50;;;;;;;;;;5045440;28;20037;-33
2022/01/05 04:10:03;;;;;;;7.10;4.32;;;;;;;;;;5045480;28;20025;-30
2022/01/05 04:12:28;;;;;;;6.32;4.55;;;;;;;;;;5045438;28;20033;-32
2022/01/05 04:14:54;;;;;;;6.72;4.60;;;;;;;;;;5044974;28;20059;-31
2022/01/05 04:17:21;;;;;;;8.05;4.30;;;;;;;;;;5045175;28;20041;-34
2022/01/05 04:19:47;;;;;;;5.38;3.88;;;;;;;;;;5045315;28;20025;-32
2022/01/05 04:22:12;;;;;;;6.65;4.20;;;;;;;;;;5045225;28;20548;-34
2022/01/05 04:24:38;;;;;;;8.25;3.95;;;;;;;;;;5045315;28;20067;-32
2022/01/05 04:27:04;;;;;;;7.80;4.05;;;;;;;;;;5034788;28;20037;-35
2022/01/05 04:29:29;;;;;;;11.50;4.55;;;;;;;;;;5024736;28;20025;-30
2022/01/05 04:31:55;;;;;;;10.02;4.20;;;;;;;;;;5024960;28;20111;-32
2022/01/05 04:34:20;;;;;;;8.40;3.70;;;;;;;;;;5024813;28;20041;-31
2022/01/05 04:36:46;;;;;;;6.78;3.97;;;;;;;;;;5024820;28;20033;-32
2022/01/05 04:39:12;;;;;;;7.00;4.28;;;;;;;;;;5025085;28;20494;-34
2022/01/05 04:41:37;;;;;;;10.20;4.32;;;;;;;;;;5025229;28;20029;-32
2022/01/05 04:44:03;;;;;;;7.40;3.80;;;;;;;;;;5024436;28;20627;-33
2022/01/05 04:46:28;;;;;;;5.25;4.25;;;;;;;;;;5024726;28;20063;-33
2022/01/05 04:48:54;;;;;;;6.00;4.22;;;;;;;;;;5024849;28;20037;-31
2022/01/05 04:51:19;;;;;;;4.90;3.92;;;;;;;;;;5037747;28;20036;-31
2022/01/05 04:53:45;;;;;;;8.23;4.22;;;;;;;;;;5043431;28;20499;-34
2022/01/05 04:56:10;;;;;;;13.30;4.28;;;;;;;;;;5039330;28;20033;-32
2022/01/05 04:58:36;;;;;;;10.07;4.82;;;;;;;;;;5024507;28;20060;-31
2022/01/05 05:01:01;;;;;;;11.43;4.15;;;;;;;;;;5024838;28;20029;-32
2022/01/05 05:03:27;;;;;;;7.32;4.43;;;;;;;;;;5024532;28;20723;-30
2022/01/05 05:05:52;;;;;;;8.27;4.00;;;;;;;;;;5024374;28;20032;-32
2022/01/05 05:08:18;;;;;;;9.13;4.00;;;;;;;;;;5023935;28;20049;-31
2022/01/05 05:10:43;;;;;;;18.85;4.00;;;;;;;;;;5024705;28;20048;-33
2022/01/05 05:13:09;;;;;;;5.80;3.88;;;;;;;;;;5024171;28;20522;-35
2022/01/05 05:15:35;;;;;;;6.80;4.10;;;;;;;;;;5023224;28;20029;-29
2022/01/05 05:18:01;;;;;;;6.20;3.53;;;;;;;;;;5024154;28;20029;-33
2022/01/05 05:20:27;;;;;;;6.90;4.25;;;;;;;;;;5024240;28;20025;-29
2022/01/05 05:22:52;;;;;;;15.25;4.97;;;;;;;;;;5023898;28;20030;-33
2022/01/05 05:25:18;;;;;;;10.50;4.97;;;;;;;;;;5024099;28;20063;-30
2022/01/05 05:27:43;;;;;;;7.95;4.20;;;;;;;;;;5022724;28;20021;-34
2022/01/05 05:30:09;;;;;;;12.35;4.35;;;;;;;;;;5039016;28;20059;-32
2022/01/05 05:32:34;;;;;;;11.32;5.13;;;;;;;;;;5024180;28;20032;-29
2022/01/05 05:35:00;;;;;;;7.70;3.95;;;;;;;;;;5023739;28;20048;-30
2022/01/05 05:37:25;;;;;;;8.50;4.30;;;;;;;;;;5024015;28;20021;-32
2022/01/05 05:39:51;;;;;;;7.95;4.05;;;;;;;;;;5024184;28;20499;-31
2022/01/05 05:42:17;;;;;;;9.13;3.88;;;;;;;;;;5023904;28;20100;-28
2022/01/05 05:44:42;;;;;;;7.97;4.05;;;;;;;;;;5023258;28;20021;-31
2022/01/05 05:47:08;;;;;;;7.95;3.90;;;;;;;;;;5023704;28;20029;-32
2022/01/05 05:49:34;;;;;;;6.78;4.53;;;;;;;;;;5024228;28;20029;-36
2022/01/05 05:51:59;;;;;;;8.52;4.38;;;;;;;;;;5025720;28;20024;-31
2022/01/05 05:54:24;;;;;;;5.88;4.05;;;;;;;;;;5031464;28;20644;-37
2022/01/05 05:56:50;;;;;;;8.80;4.30;;;;;;;;;;5024081;28;20112;-37
2022/01/05 05:59:15;;;;;;;9.90;4.57;;;;;;;;;;5023402;28;20051;-30
2022/01/05 06:01:41;;;;;;;7.30;4.65;;;;;;;;;;5023555;28;20064;-28
2022/01/05 06:04:06;;;;;;;9.25;4.40;;;;;;;;;;5023432;28;20423;-30
2022/01/05 06:06:32;;;;;;;7.47;4.90;;;;;;;;;;5023381;28;20049;-32
2022/01/05 06:08:57;;;;;;;7.50;4.80;;;;;;;;;;5023099;28;20057;-33
2022/01/05 06:11:23;;;;;;;5.30;3.95;;;;;;;;;;5023431;28;20030;-28
2022/01/05 06:13:50;;;;;;;9.00;5.10;;;;;;;;;;5023328;28;20717;-31
2022/01/05 06:16:16;;;;;;;6.10;3.90;;;;;;;;;;5023213;28;20122;-32
2022/01/05 06:18:41;;;;;;;7.88;3.97;;;;;;;;;;5023201;28;20034;-32
2022/01/05 06:21:07;;;;;;;7.55;4.63;;;;;;;;;;5022998;28;20032;-34
2022/01/05 06:23:32;;;;;;;5.18;3.95;;;;;;;;;;5023016;28;20032;-33
2022/01/05 06:25:58;;;;;;;6.40;4.13;;;;;;;;;;5022191;28;20385;-33
2022/01/05 06:28:23;;;;;;;7.97;4.15;;;;;;;;;;5022782;28;20032;-35
2022/01/05 06:30:49;;;;;;;5.28;4.35;;;;;;;;;;5022986;28;20029;-35
2022/01/05 06:33:14;;;;;;;5.45;4.20;;;;;;;;;;5022641;28;20056;-36
2022/01/05 06:35:40;;;;;;;5.60;4.40;;;;;;;;;;5022769;28;20026;-32
2022/01/05 06:38:05;;;;;;;6.32;4.43;;;;;;;;;;5022503;28;20029;-37
2022/01/05 06:40:31;;;;;;;7.20;4.75;;;;;;;;;;5022470;28;20029;-31
2022/01/05 06:42:58;;;;;;;8.63;4.32;;;;;;;;;;5022746;28;20670;-35
2022/01/05 06:45:24;;;;;;;7.88;4.85;;;;;;;;;;5022730;28;20122;-29
2022/01/05 06:47:49;;;;;;;6.72;4.60;;;;;;;;;;5023025;28;20038;-33
2022/01/05 06:50:15;;;;;;;5.60;4.28;;;;;;;;;;5031690;28;20501;-32
2022/01/05 06:52:40;;;;;;;5.20;3.95;;;;;;;;;;5031988;28;20037;-34
2022/01/05 06:55:07;;;;;;;6.32;4.10;;;;;;;;;;5024547;28;20034;-32
2022/01/05 06:57:33;;;;;;;5.75;4.22;;;;;;;;;;5042803;28;20108;-30
2022/01/05 06:59:59;;;;;;;6.22;4.25;;;;;;;;;;5042357;28;20549;-36
2022/01/05 07:02:24;;;;;;;6.78;4.45;;;;;;;;;;5042221;28;20029;-31
2022/01/05 07:04:50;;;;;;;6.53;4.28;;;;;;;;;;5040952;28;20098;-36
2022/01/05 07:07:16;;;;;;;6.13;3.88;;;;;;;;;;5042358;28;20029;-37
2022/01/05 07:09:42;;;;;;;7.38;4.18;;;;;;;;;;5042085;28;20067;-32
2022/01/05 07:12:08;;;;;;;7.45;4.00;;;;;;;;;;5042219;28;20094;-34
2022/01/05 07:14:33;;;;;;;5.00;4.15;;;;;;;;;;5042067;28;20098;-32
2022/01/05 07:17:00;;;;;;;5.50;3.90;;;;;;;;;;5041588;28;20056;-35
2022/01/05 07:19:26;;;;;;;7.28;4.15;;;;;;;;;;5042141;28;20036;-33
2022/01/05 07:21:51;;;;;;;8.40;4.07;;;;;;;;;;5042053;28;20121;-36
2022/01/05 07:24:19;;;;;;;6.28;4.13;;;;;;;;;;5042585;28;20037;-29
2022/01/05 07:26:45;;;;;;;7.50;3.97;;;;;;;;;;5042106;28;20029;-32
2022/01/05 07:29:12;;;;;;;4.97;3.90;;;;;;;;;;5042557;28;20032;-33
2022/01/05 07:31:38;;;;;;;5.53;3.55;;;;;;;;;;5042359;28;20507;-31
2022/01/05 07:34:03;;;;;;;5.90;3.92;;;;;;;;;;5042472;28;20029;-34
2022/01/05 07:36:29;;;;;;;5.32;3.88;;;;;;;;;;5041973;28;20225;-37
2022/01/05 07:38:54;;;;;;;4.75;3.63;;;;;;;;;;5045048;28;20017;-31
2022/01/05 07:41:20;;;;;;;7.95;3.88;;;;;;;;;;5045798;28;20029;-38
2022/01/05 07:43:45;;;;;;;4.78;3.45;;;;;;;;;;5045848;28;20087;-35
2022/01/05 07:46:11;;;;;;;4.35;3.67;;;;;;;;;;5045654;28;20044;-34
2022/01/05 07:48:36;;;;;;;5.43;3.90;;;;;;;;;;5044005;28;20044;-34
2022/01/05 07:51:02;;;;;;;7.70;4.35;;;;;;;;;;5043993;28;20562;-34
2022/01/05 07:53:28;;;;;;;4.63;3.40;;;;;;;;;;5034315;28;20069;-34
2022/01/05 07:55:53;;;;;;;4.65;3.60;;;;;;;;;;5037971;28;20469;-32
2022/01/05 07:58:21;;;;;;;5.15;3.38;;;;;;;;;;5045504;28;20029;-33
2022/01/05 08:00:47;;;;;;;4.75;3.60;;;;;;;;;;5043957;28;20031;-34
2022/01/05 08:03:12;;;;;;;3.80;3.20;;;;;;;;;;5045574;28;20029;-33
2022/01/05 08:05:38;;;;;;;5.93;3.22;;;;;;;;;;5045672;28;20624;-30
2022/01/05 08:08:03;;;;;;;4.68;3.47;;;;;;;;;;5045049;28;20041;-35
2022/01/05 08:10:29;;;;;;;4.28;3.33;;;;;;;;;;5045342;28;20068;-28
2022/01/05 08:12:54;;;;;;;4.50;3.53;;;;;;;;;;5045527;28;20055;-33
2022/01/05 08:15:20;;;;;;;4.30;3.40;;;;;;;;;;5045408;28;20055;-35
2022/01/05 08:17:45;;;;;;;4.82;3.50;;;;;;;;;;5045372;28;20036;-35
2022/01/05 08:20:11;;;;;;;3.53;3.03;;;;;;;;;;5045120;28;20063;-33
2022/01/05 08:22:44;;;;;;;4.43;3.25;;;;;;;;;;5044788;28;20039;-33
2022/01/05 08:25:10;;;;;;;4.30;3.28;;;;;;;;;;5044757;28;20028;-35
2022/01/05 08:27:36;;;;;;;4.65;3.45;;;;;;;;;;5045114;28;20028;-33
2022/01/05 08:30:05;;;;;;;3.92;3.05;;;;;;;;;;5044859;28;20036;-32
2022/01/05 08:32:31;;;;;;;5.47;3.63;;;;;;;;;;5045107;28;20509;-32
2022/01/05 08:34:57;;;;;;;4.53;3.15;;;;;;;;;;5044977;28;20483;-30
2022/01/05 08:37:23;;;;;;;4.03;3.30;;;;;;;;;;5044745;28;20021;-34
2022/01/05 08:39:50;;;;;;;4.25;3.30;;;;;;;;;;5045156;28;20116;-36
2022/01/05 08:42:16;;;;;;;3.90;3.40;;;;;;;;;;5045056;28;20845;-32
2022/01/05 08:44:42;;;;;;;4.82;3.20;;;;;;;;;;5044378;28;20040;-31
2022/01/05 08:47:08;;;;;;;3.67;2.95;;;;;;;;;;5044728;28;20065;-35
2022/01/05 08:49:34;;;;;;;5.00;3.35;;;;;;;;;;5043580;28;20052;-38
2022/01/05 08:51:59;;;;;;;4.13;3.08;;;;;;;;;;5033377;28;20031;-32
2022/01/05 08:54:25;;;;;;;5.10;3.60;;;;;;;;;;5025635;28;20033;-31
2022/01/05 08:56:51;;;;;;;4.75;3.10;;;;;;;;;;5024152;28;20045;-37
2022/01/05 08:59:16;;;;;;;4.05;3.30;;;;;;;;;;5024433;28;20040;-34
2022/01/05 09:01:43;;;;;;;3.25;2.92;;;;;;;;;;5024630;28;20159;-34
2022/01/05 09:04:08;;;;;;;6.55;3.63;;;;;;;;;;5024147;28;20506;-34
2022/01/05 09:06:34;;;;;;;3.88;3.40;;;;;;;;;;5024554;28;20029;-37
2022/01/05 09:08:59;;;;;;;3.72;3.33;;;;;;;;;;5024220;28;20045;-33
2022/01/05 09:11:27;;;;;;;4.88;3.47;;;;;;;;;;5024814;28;20029;-29
2022/01/05 09:13:52;;;;;;;4.53;3.58;;;;;;;;;;5024485;28;20495;-30
2022/01/05 09:16:18;;;;;;;3.95;3.00;;;;;;;;;;5024086;28;20037;-31
2022/01/05 09:18:44;;;;;;;5.15;3.40;;;;;;;;;;5024310;28;20033;-34
2022/01/05 09:21:09;;;;;;;5.03;3.70;;;;;;;;;;5024128;28;20033;-35
2022/01/05 09:23:35;;;;;;;4.15;3.05;;;;;;;;;;5023951;28;20488;-28
2022/01/05 09:26:02;;;;;;;3.58;2.97;;;;;;;;;;5024288;28;20029;-36
2022/01/05 09:28:27;;;;;;;4.25;3.30;;;;;;;;;;5022714;28;20495;-31
2022/01/05 09:30:53;;;;;;;5.57;3.88;;;;;;;;;;5024296;28;20022;-31
2022/01/05 09:33:19;;;;;;;5.18;3.28;;;;;;;;;;5023623;28;20037;-31
2022/01/05 09:35:46;;;;;;;3.67;3.05;;;;;;;;;;5023898;28;20030;-34
2022/01/05 09:38:34;;;;;;;3.90;3.20;;;;;;;;;;5024178;28;20057;-35
2022/01/05 09:43:54;;;;;;;4.22;3.47;;;;;;;;;;5024011;28;20068;-33
2022/01/05 09:46:25;;;;;;;5.45;3.35;;;;;;;;;;5023302;28;20037;-33
2022/01/05 09:48:54;;;;;;;3.70;2.97;;;;;;;;;;5022610;28;20036;-31
2022/01/05 09:51:19;;;;;;;3.67;3.05;;;;;;;;;;5024740;28;20153;-34
2022/01/05 09:53:45;;;;;;;4.10;3.35;;;;;;;;;;5023086;28;20025;-31
2022/01/05 09:56:10;;;;;;;4.00;3.17;;;;;;;;;;5023538;28;20649;-28
2022/01/05 09:58:36;;;;;;;4.15;3.10;;;;;;;;;;5022855;28;20025;-31
2022/01/05 10:01:03;;;;;;;4.70;3.42;;;;;;;;;;5021339;28;20098;-34
2022/01/05 10:03:28;;;;;;;3.90;3.28;;;;;;;;;;5023550;28;20064;-36
2022/01/05 10:05:54;;;;;;;4.70;3.45;;;;;;;;;;5005263;28;20530;-32
2022/01/05 10:08:19;;;;;;;4.55;3.55;;;;;;;;;;5022740;28;20041;-34
2022/01/05 10:10:45;;;;;;;4.82;3.53;;;;;;;;;;5023685;28;20041;-35
2022/01/05 10:13:11;;;;;;;4.93;3.50;;;;;;;;;;5021799;28;20161;-35
2022/01/05 10:15:37;;;;;;;5.78;3.33;;;;;;;;;;5039197;28;20516;-34
2022/01/05 10:18:22;;;;;;;4.32;3.50;;;;;;;;;;5043262;28;20059;-33
2022/01/05 10:21:02;;;;;;;3.95;2.90;;;;;;;;;;5042963;28;20033;-33
2022/01/05 10:23:41;;;;;;;4.00;3.33;;;;;;;;;;5041277;28;20108;-35
2022/01/05 10:26:33;;;;;;;4.93;3.53;;;;;;;;;;5042705;28;20021;-33
2022/01/05 10:29:04;;;;;;;6.22;4.10;;;;;;;;;;5043005;28;20537;-34
2022/01/05 10:31:34;;;;;;;4.90;4.20;;;;;;;;;;5042705;28;20032;-31
2022/01/05 10:34:12;;;;;;;5.68;4.18;;;;;;;;;;5042938;28;20071;-33
2022/01/05 10:36:44;;;;;;;6.07;4.55;;;;;;;;;;5041201;28;20032;-31
2022/01/05 10:39:10;;;;;;;5.40;4.80;;;;;;;;;;5042685;28;20040;-29
2022/01/05 10:41:36;;;;;;;5.57;4.63;;;;;;;;;;5042321;28;20499;-32
2022/01/05 10:44:09;;;;;;;4.78;3.92;;;;;;;;;;5042794;28;20033;-29
2022/01/05 10:46:35;;;;;;;;;;;;;;;;;;5041700;28;20487;-36
2022/01/05 10:49:03;;;;;;;5.45;4.43;;;;;;;;;;5031235;28;19917;-33
2022/01/05 10:51:32;;;;;;;6.40;4.78;;;;;;;;;;5024020;28;20056;-32
2022/01/05 10:54:17;;;;;;;5.43;4.80;;;;;;;;;;5027569;28;20024;-34
2022/01/05 10:56:43;;;;;;;4.57;4.18;;;;;;;;;;5035315;28;20029;-35
2022/01/05 10:59:09;;;;;;;5.10;4.60;;;;;;;;;;5022683;28;20030;-31
2022/01/05 11:01:35;;;;;;;6.22;4.95;;;;;;;;;;5022823;28;20164;-32
2022/01/05 11:04:19;;;;;;;6.05;4.90;;;;;;;;;;5037426;28;20037;-33
2022/01/05 11:06:58;;;;;;;6.00;4.63;;;;;;;;;;5022532;28;20072;-33
2022/01/05 11:09:24;;;;;;;5.30;4.40;;;;;;;;;;5022177;28;20128;-30
2022/01/05 11:11:50;;;;;;;6.45;5.07;;;;;;;;;;5023253;28;20116;-31
2022/01/05 11:14:16;;;;;;;4.63;4.13;;;;;;;;;;5026837;28;20029;-32
2022/01/05 11:16:43;;;;;;;5.40;4.60;;;;;;;;;;5026580;28;20053;-33
2022/01/05 11:19:18;;;;;;;5.80;4.60;;;;;;;;;;5026202;28;20120;-33
2022/01/05 11:22:12;;;;;;;5.10;4.45;;;;;;;;;;5026352;28;20035;-35
2022/01/05 11:24:39;;;;;;;5.85;4.75;;;;;;;;;;5026641;28;20099;-37
2022/01/05 11:27:06;;;;;;;5.57;4.57;;;;;;;;;;5026338;28;20075;-32
2022/01/05 11:29:33;;;;;;;6.78;5.28;;;;;;;;;;5025036;28;20056;-29
2022/01/05 11:32:03;;;;;;;5.20;4.70;;;;;;;;;;5026455;28;20044;-30
2022/01/05 11:34:29;;;;;;;6.30;4.85;;;;;;;;;;5026128;28;20084;-31
2022/01/05 11:36:54;;;;;;;6.22;5.05;;;;;;;;;;5025561;28;20127;-32
2022/01/05 11:39:20;;;;;;;5.45;4.88;;;;;;;;;;5025791;28;20025;-30
2022/01/05 11:41:47;;;;;;;5.43;4.70;;;;;;;;;;5026469;28;20022;-35
2022/01/05 11:44:12;;;;;;;5.80;4.75;;;;;;;;;;5024683;28;20033;-36
2022/01/05 11:46:42;;;;;;;7.05;4.90;;;;;;;;;;5025541;28;20029;-35
2022/01/05 11:49:09;;;;;;;5.20;4.50;;;;;;;;;;5026139;28;20095;-35
2022/01/05 11:51:45;;;;;;;5.18;4.35;;;;;;;;;;5026082;28;20570;-32
2022/01/05 11:54:20;;;;;;;5.97;4.90;;;;;;;;;;5026361;28;20104;-29
2022/01/05 11:56:51;;;;;;;7.10;5.00;;;;;;;;;;5025639;28;20692;-32
2022/01/05 11:59:24;;;;;;;5.20;4.70;;;;;;;;;;5025695;28;20033;-37
2022/01/05 12:01:57;;;;;;;5.35;4.70;;;;;;;;;;5025749;28;20022;-33
2022/01/05 12:04:23;;;;;;;5.28;4.63;;;;;;;;;;5025735;28;20029;-30
2022/01/05 12:06:49;;;;;;;5.47;4.65;;;;;;;;;;5025618;28;20017;-35
2022/01/05 12:09:21;;;;;;;4.90;4.38;;;;;;;;;;5025201;28;20049;-32
2022/01/05 12:11:47;;;;;;;5.53;4.45;;;;;;;;;;5025351;28;20604;-32
2022/01/05 12:14:22;;;;;;;5.63;4.85;;;;;;;;;;5025368;28;20025;-32
2022/01/05 12:17:02;;;;;;;5.70;4.78;;;;;;;;;;5025281;28;20033;-32
2022/01/05 12:19:34;;;;;;;5.28;4.63;;;;;;;;;;5025471;28;20332;-32
2022/01/05 12:22:07;;;;;;;5.15;4.40;;;;;;;;;;5025672;28;20470;-37
2022/01/05 12:25:05;;;;;;;5.38;4.72;;;;;;;;;;5024412;28;20123;-31
2022/01/05 12:27:54;;;;;;;4.72;4.30;;;;;;;;;;5019874;28;20051;-31
2022/01/05 12:30:20;;;;;;;5.93;4.65;;;;;;;;;;5024503;28;20037;-30
2022/01/05 12:32:47;;;;;;;5.03;4.53;;;;;;;;;;5025051;28;20040;-36
2022/01/05 12:35:18;;;;;;;5.07;4.50;;;;;;;;;;5024922;28;20084;-32
2022/01/05 12:37:49;;;;;;;5.32;4.43;;;;;;;;;;5025171;28;20442;-29
2022/01/05 12:40:29;;;;;;;5.35;4.30;;;;;;;;;;5039016;28;20623;-31
2022/01/05 12:43:06;;;;;;;4.53;4.00;;;;;;;;;;5044901;28;20478;-35
2022/01/05 12:45:50;;;;;;;4.85;4.30;;;;;;;;;;5044519;28;20410;-35
2022/01/05 12:48:36;;;;;;;4.43;3.92;;;;;;;;;;5034421;28;20037;-33
2022/01/05 12:51:11;;;;;;;4.75;4.15;;;;;;;;;;5037930;28;20049;-35
2022/01/05 12:53:37;;;;;;;5.13;4.45;;;;;;;;;;5037332;28;20410;-31
2022/01/05 12:56:03;;;;;;;5.25;4.43;;;;;;;;;;5027728;28;20037;-33
2022/01/05 12:58:35;;;;;;;4.95;4.43;;;;;;;;;;5043099;28;20036;-30
2022/01/05 13:01:00;;;;;;;4.93;4.18;;;;;;;;;;5044615;28;20488;-30
2022/01/05 13:03:32;;;;;;;4.78;4.18;;;;;;;;;;5044456;28;20517;-31
2022/01/05 13:06:21;;;;;;;4.43;3.87;;;;;;;;;;5044549;28;20038;-30
2022/01/05 13:09:00;;;;;;;7.50;4.47;;;;;;;;;;5044064;28;20049;-32
2022/01/05 13:11:40;;;;;;;4.75;4.00;;;;;;;;;;5043850;28;20542;-33
2022/01/05 13:14:27;;;;;;;4.85;4.25;;;;;;;;;;5044309;28;20028;-31
2022/01/05 13:16:56;;;;;;;4.35;3.85;;;;;;;;;;5044236;28;20460;-32
2022/01/05 13:19:31;;;;;;;4.90;3.90;;;;;;;;;;5044237;28;20036;-33
2022/01/05 13:22:04;;;;;;;4.57;3.97;;;;;;;;;;5044096;28;20045;-31
2022/01/05 13:25:02;;;;;;;4.90;4.38;;;;;;;;;;5043860;28;20028;-33
2022/01/05 13:27:41;;;;;;;4.78;4.05;;;;;;;;;;5044392;28;20037;-30
2022/01/05 13:30:09;;;;;;;4.70;4.10;;;;;;;;;;5044207;28;20025;-35
2022/01/05 13:32:35;;;;;;;5.40;4.38;;;;;;;;;;5043874;28;20055;-32
2022/01/05 13:35:15;;;;;;;5.00;3.90;;;;;;;;;;5043065;28;20633;-34
2022/01/05 13:37:47;;;;;;;5.05;4.55;;;;;;;;;;5044144;28;20029;-35
2022/01/05 13:40:23;;;;;;;4.93;4.28;;;;;;;;;;5043653;28;20029;-35
2022/01/05 13:43:01;;;;;;;5.13;4.30;;;;;;;;;;5043831;28;20048;-32
2022/01/05 13:45:28;;;;;;;5.18;4.43;;;;;;;;;;5043550;28;20033;-32
2022/01/05 13:47:59;;;;;;;5.38;4.10;;;;;;;;;;5016917;28;20167;-34
2022/01/05 13:50:32;;;;;;;4.50;3.90;;;;;;;;;;5024928;28;20144;-29
2022/01/05 13:53:08;;;;;;;5.45;4.30;;;;;;;;;;5024606;28;20030;-34
2022/01/05 13:55:51;;;;;;;4.63;3.80;;;;;;;;;;5023584;28;20443;-29
2022/01/05 13:58:21;;;;;;;;;;;;;;;;;;5023505;28;20531;-32
2022/01/05 14:00:55;;;;;;;5.25;4.15;;;;;;;;;;5023448;28;19912;-35
2022/01/05 14:03:29;;;;;;;4.38;3.88;;;;;;;;;;5021638;28;20136;-32
2022/01/05 14:05:54;;;;;;;5.07;4.15;;;;;;;;;;5023800;28;20507;-31
2022/01/05 14:08:30;;;;;;;4.07;3.67;;;;;;;;;;5023452;28;20116;-30
2022/01/05 14:11:03;;;;;;;5.90;4.15;;;;;;;;;;5023121;28;20034;-30
2022/01/05 14:13:28;;;;;;;6.10;4.20;;;;;;;;;;5023165;28;20792;-31
2022/01/05 14:15:59;;;;;;;4.30;3.90;;;;;;;;;;5032401;28;20032;-34
2022/01/05 14:18:25;;;;;;;6.03;4.38;;;;;;;;;;5042582;28;20678;-30
2022/01/05 14:20:52;;;;;;;4.50;3.90;;;;;;;;;;5042960;28;20130;-31
2022/01/05 14:23:19;;;;;;;4.55;3.70;;;;;;;;;;5043044;28;20079;-34
2022/01/05 14:25:51;;;;;;;5.20;4.43;;;;;;;;;;5042999;28;20033;-33
2022/01/05 14:28:31;;;;;;;4.80;3.95;;;;;;;;;;5043065;28;20285;-34
2022/01/05 14:31:12;;;;;;;4.38;3.88;;;;;;;;;;5042860;28;20033;-34
2022/01/05 14:33:39;;;;;;;5.28;4.30;;;;;;;;;;5042847;28;20032;-31
2022/01/05 14:36:27;;;;;;;4.35;3.78;;;;;;;;;;5042795;28;20567;-29
2022/01/05 14:38:58;;;;;;;5.90;4.15;;;;;;;;;;5043206;28;20086;-33
2022/01/05 14:41:50;;;;;;;4.70;4.10;;;;;;;;;;5042561;28;20116;-31
2022/01/05 14:44:15;;;;;;;5.07;4.47;;;;;;;;;;5042833;28;20078;-33
2022/01/05 14:46:43;;;;;;;4.28;3.88;;;;;;;;;;5041550;28;20044;-33
2022/01/05 14:49:08;;;;;;;4.35;3.85;;;;;;;;;;5037761;28;20112;-31
2022/01/05 14:51:34;;;;;;;4.90;4.05;;;;;;;;;;5037399;28;20044;-34
2022/01/05 14:53:59;;;;;;;5.13;4.25;;;;;;;;;;5027184;28;20108;-31